Time;durP1;ratioP1;P1;durP2;ratioP2;P2;SDS_P1;SDS_P2;PMS_P1;PMS_P2;Temp;Humidity;BMP_temperature;BMP_pressure;BME280_temperature;BME280_humidity;BME280_pressure;Samples;Min_cycle;Max_cycle;Signal;HPM_P1;HPM_P2
2022/04/07 00:25:19;;;;;;;9.23;5.40;;;;;;;13.41;52.92;93972.50;5015309;28;20450;-82
2022/04/07 00:27:46;;;;;;;7.50;6.07;;;;;;;13.08;53.75;93964.66;5015302;28;20439;-82
2022/04/07 00:30:15;;;;;;;6.93;5.23;;;;;;;12.86;54.28;93952.19;5015042;28;20431;-81
2022/04/07 00:32:43;;;;;;;6.00;5.40;;;;;;;12.97;53.70;93952.66;5015049;28;20451;-81
2022/04/07 00:35:10;;;;;;;8.23;5.70;;;;;;;13.04;54.00;93931.75;5014872;28;20478;-82
2022/04/07 00:37:38;;;;;;;6.60;5.60;;;;;;;13.06;54.00;93934.22;5015302;28;20432;-81
2022/04/07 00:40:06;;;;;;;9.87;5.77;;;;;;;12.89;54.50;93930.78;5015024;28;20486;-81
2022/04/07 00:42:34;;;;;;;11.03;5.53;;;;;;;12.91;54.03;93944.59;5014937;28;20451;-81
2022/04/07 00:45:02;;;;;;;7.60;5.70;;;;;;;12.95;53.77;93940.66;5014983;28;20907;-81
2022/04/07 00:47:29;;;;;;;11.00;6.33;;;;;;;13.01;53.93;93938.19;5014718;28;20816;-82
2022/04/07 00:49:56;;;;;;;10.27;6.47;;;;;;;13.07;53.95;93934.06;5014714;28;20432;-82
2022/04/07 00:52:24;;;;;;;10.40;5.80;;;;;;;13.13;53.70;93928.09;5014551;28;20443;-82
2022/04/07 00:54:51;;;;;;;7.73;6.83;;;;;;;13.17;54.01;93925.94;5014211;28;20491;-82
2022/04/07 00:57:18;;;;;;;6.60;5.77;;;;;;;13.23;54.00;93922.66;5014266;28;20953;-83
2022/04/07 00:59:48;;;;;;;9.47;7.47;;;;;;;13.29;53.78;93912.25;5014388;28;20535;-82
2022/04/07 01:02:14;;;;;;;6.50;5.80;;;;;;;13.33;54.28;93916.22;5014252;28;20482;-82
2022/04/07 01:04:42;;;;;;;7.30;6.60;;;;;;;13.37;54.10;93911.44;5014453;28;20444;-82
2022/04/07 01:07:09;;;;;;;10.07;7.13;;;;;;;13.41;53.73;93911.91;5014908;28;20448;-82
2022/04/07 01:09:38;;;;;;;9.03;6.30;;;;;;;13.40;54.13;93905.00;5014645;28;20461;-82
2022/04/07 01:12:06;;;;;;;13.27;7.10;;;;;;;13.40;53.95;93905.81;5014423;28;20436;-82
2022/04/07 01:14:32;;;;;;;12.00;6.30;;;;;;;13.37;54.05;93900.06;4996344;28;20454;-82
2022/04/07 01:17:01;;;;;;;7.43;6.37;;;;;;;13.27;53.71;93890.53;5014306;28;20432;-82
2022/04/07 01:19:28;;;;;;;8.63;7.67;;;;;;;13.18;54.39;93874.94;5014383;28;20435;-82
2022/04/07 01:21:55;;;;;;;6.80;5.80;;;;;;;13.07;55.14;93872.66;4996488;28;20949;-82
2022/04/07 01:24:30;;;;;;;6.83;5.60;;;;;;;13.01;55.29;93874.16;5014341;28;20447;-82
2022/04/07 01:26:58;;;;;;;7.63;5.63;;;;;;;12.97;55.27;93862.28;5014315;28;20509;-82
2022/04/07 01:29:26;;;;;;;9.03;6.03;;;;;;;12.93;55.67;93872.34;5014869;28;20474;-83
2022/04/07 01:31:53;;;;;;;10.27;6.73;;;;;;;12.88;55.87;93865.97;5014307;28;20435;-81
2022/04/07 01:34:20;;;;;;;11.47;6.10;;;;;;;12.88;56.56;93860.69;5014039;28;20428;-82
2022/04/07 01:41:06;;;;;;;9.80;5.57;;;;;;;12.89;56.09;93821.03;5000763;28;20451;-82
2022/04/07 01:43:36;;;;;;;6.03;5.47;;;;;;;12.90;55.88;93820.03;5014077;28;20455;-82
2022/04/07 01:46:03;;;;;;;8.60;5.60;;;;;;;12.93;56.07;93817.06;4979961;28;20466;-81
2022/04/07 01:48:31;;;;;;;8.47;5.83;;;;;;;12.93;55.94;93817.06;5014147;28;20473;-82
2022/04/07 01:50:58;;;;;;;6.83;5.20;;;;;;;12.95;56.44;93827.41;4995656;28;20454;-82
2022/04/07 01:53:25;;;;;;;9.63;4.80;;;;;;;12.95;55.86;93815.06;5014057;28;20440;-81
2022/04/07 01:55:52;;;;;;;9.47;5.83;;;;;;;12.96;55.70;93811.44;5013557;28;20970;-82
2022/04/07 01:58:19;;;;;;;7.93;5.93;;;;;;;12.96;56.33;93802.72;5013915;28;20767;-82
2022/04/07 02:10:53;;;;;;;8.60;6.43;;;;;;;12.76;56.42;93789.16;5012297;28;20454;-82
2022/04/07 02:13:19;;;;;;;10.07;5.80;;;;;;;12.75;56.75;93782.25;4979124;28;20436;-83
2022/04/07 02:15:46;;;;;;;12.60;6.30;;;;;;;12.72;56.66;93798.38;5013645;28;20471;-82
2022/04/07 02:18:13;;;;;;;7.43;5.80;;;;;;;12.68;57.33;93789.16;5014324;28;20451;-83
2022/04/07 02:20:40;;;;;;;6.93;6.30;;;;;;;12.65;57.53;93782.44;5014521;28;20436;-83
2022/04/07 02:23:07;;;;;;;6.57;5.40;;;;;;;12.63;57.43;93776.53;5014484;28;20436;-82
2022/04/07 02:25:34;;;;;;;8.07;5.63;;;;;;;12.64;57.72;93767.63;4979575;28;20448;-82
2022/04/07 02:28:02;;;;;;;8.80;4.20;;;;;;;12.64;57.14;93762.38;5013801;28;20446;-83
2022/04/07 02:30:29;;;;;;;8.07;5.40;;;;;;;12.64;57.65;93761.56;5014163;28;20446;-82
2022/04/07 02:32:56;;;;;;;6.27;5.67;;;;;;;12.61;57.50;93764.53;5013374;28;20520;-82
2022/04/07 02:35:23;;;;;;;5.00;4.60;;;;;;;12.60;57.22;93776.03;5014035;28;20494;-81
2022/04/07 02:37:49;;;;;;;6.70;5.60;;;;;;;12.56;57.78;93774.75;5013320;28;20424;-83
2022/04/07 02:40:16;;;;;;;8.77;5.67;;;;;;;12.55;57.37;93778.38;5013616;28;20431;-83
2022/04/07 02:42:43;;;;;;;5.40;4.90;;;;;;;12.50;57.34;93775.44;5013844;28;20478;-82
2022/04/07 02:45:12;;;;;;;10.03;5.30;;;;;;;12.40;58.22;93757.19;5017177;28;20442;-83
2022/04/07 02:47:39;;;;;;;7.00;6.13;;;;;;;12.20;58.37;93735.72;5017650;28;20809;-80
2022/04/07 02:50:07;;;;;;;10.90;5.90;;;;;;;12.05;58.74;93745.28;5017343;28;20799;-81
2022/04/07 02:52:34;;;;;;;8.40;5.50;;;;;;;11.95;59.02;93749.91;4982803;28;20470;-83
2022/04/07 02:55:01;;;;;;;8.30;6.00;;;;;;;11.86;59.77;93745.66;5016741;28;20895;-82
2022/04/07 03:00:51;;;;;;;8.13;5.90;;;;;;;11.74;60.97;93732.78;5016878;28;20453;-81
2022/04/07 03:03:17;;;;;;;7.07;5.70;;;;;;;11.74;60.11;93724.09;5017433;28;20436;-82
2022/04/07 03:05:44;;;;;;;7.10;5.87;;;;;;;11.79;60.41;93725.25;5017379;28;20451;-82
2022/04/07 03:08:12;;;;;;;7.60;5.27;;;;;;;11.89;59.82;93719.03;5016564;28;20454;-81
2022/04/07 03:10:39;;;;;;;5.50;5.00;;;;;;;11.95;59.99;93692.88;5016725;28;20442;-82
2022/04/07 03:13:06;;;;;;;7.57;5.00;;;;;;;12.00;59.45;93690.56;5016525;28;20436;-82
2022/04/07 03:15:33;;;;;;;6.17;4.87;;;;;;;12.02;60.75;93693.03;4998434;28;20498;-82
2022/04/07 03:28:07;;;;;;;6.23;5.57;;;;;;;12.03;61.24;93711.25;5015463;28;20469;-82
2022/04/07 03:30:34;;;;;;;6.50;5.90;;;;;;;11.95;60.58;93698.13;5014604;28;20450;-83
2022/04/07 03:33:02;;;;;;;6.40;5.67;;;;;;;11.85;61.39;93699.28;5016420;28;20805;-81
2022/04/07 03:35:29;;;;;;;9.50;5.50;;;;;;;11.79;61.23;93687.66;5016349;28;20537;-83
2022/04/07 03:48:41;;;;;;;6.57;5.90;;;;;;;11.62;62.26;93644.78;4996496;28;20404;-82
2022/04/07 03:51:09;;;;;;;6.03;5.10;;;;;;;11.52;61.74;93648.56;4996281;28;20437;-82
2022/04/07 03:53:36;;;;;;;10.20;5.57;;;;;;;11.57;63.60;93636.59;4996278;28;20468;-82
2022/04/07 03:56:03;;;;;;;7.87;7.10;;;;;;;11.58;62.65;93627.72;4996094;28;20472;-82
2022/04/07 03:58:30;;;;;;;9.50;5.50;;;;;;;11.59;62.32;93624.09;4996098;28;20448;-82
2022/04/07 04:00:57;;;;;;;11.03;5.57;;;;;;;11.68;61.86;93614.41;4996506;28;20437;-81
2022/04/07 04:03:24;;;;;;;6.93;5.60;;;;;;;11.69;61.57;93614.22;4996523;28;20425;-80
2022/04/07 04:05:53;;;;;;;6.20;4.60;;;;;;;11.68;61.59;93624.91;4996548;28;20437;-83
2022/04/07 04:08:19;;;;;;;7.87;5.37;;;;;;;11.67;61.73;93620.63;4996458;28;21128;-82
2022/04/07 04:10:47;;;;;;;6.17;5.57;;;;;;;11.64;62.05;93616.53;4995775;28;20810;-80
2022/04/07 04:13:14;;;;;;;8.30;6.03;;;;;;;11.58;62.01;93617.22;4996289;28;20850;-81
2022/04/07 04:15:40;;;;;;;11.30;5.50;;;;;;;11.60;61.70;93609.97;4996058;28;20570;-80
2022/04/07 04:18:07;;;;;;;10.10;5.47;;;;;;;11.62;61.36;93618.53;4996390;28;20442;-80
2022/04/07 04:20:34;;;;;;;8.03;5.23;;;;;;;11.69;62.04;93642.31;4995806;28;20440;-79
2022/04/07 04:23:02;;;;;;;10.43;4.87;;;;;;;11.63;61.16;93627.22;4995892;28;20935;-82
2022/04/07 04:25:29;;;;;;;7.67;5.53;;;;;;;11.64;60.70;93620.97;4995833;28;20448;-82
2022/04/07 04:27:56;;;;;;;9.20;4.97;;;;;;;11.68;61.31;93627.53;4995701;28;20441;-81
2022/04/07 04:30:23;;;;;;;9.30;5.47;;;;;;;11.74;60.77;93638.19;4996111;28;20444;-81
2022/04/07 04:32:50;;;;;;;7.00;5.33;;;;;;;11.80;61.04;93641.97;4996586;28;20448;-81
2022/04/07 04:35:17;;;;;;;7.30;5.67;;;;;;;11.85;60.76;93649.34;4996190;28;20806;-82
2022/04/07 04:37:43;;;;;;;8.93;6.63;;;;;;;11.79;61.14;93653.47;4977601;28;20453;-82
2022/04/07 04:40:12;;;;;;;7.23;5.70;;;;;;;11.94;61.36;93637.84;4995912;28;20436;-82
2022/04/07 04:42:41;;;;;;;6.40;5.80;;;;;;;11.70;60.28;93626.38;4995656;28;20444;-82
2022/04/07 04:45:08;;;;;;;6.17;5.57;;;;;;;11.77;60.32;93635.22;4996037;28;20445;-82
2022/04/07 04:47:35;;;;;;;12.17;6.03;;;;;;;11.86;60.13;93624.75;5008887;28;20502;-81
2022/04/07 04:50:04;;;;;;;6.30;5.80;;;;;;;11.91;60.24;93615.34;5014753;28;20434;-81
2022/04/07 04:55:54;;;;;;;9.23;5.90;;;;;;;12.04;61.83;93635.84;5014698;28;20482;-82
2022/04/07 04:58:21;;;;;;;6.20;5.60;;;;;;;11.94;60.58;93633.41;5024552;28;20459;-82
2022/04/07 05:00:48;;;;;;;14.53;5.87;;;;;;;12.06;61.98;93621.53;5034843;28;20439;-81
2022/04/07 05:03:15;;;;;;;7.47;6.10;;;;;;;12.22;63.73;93640.88;5034160;28;20439;-82
2022/04/07 05:05:42;;;;;;;12.40;6.00;;;;;;;12.26;62.58;93647.44;5034397;28;20466;-82
2022/04/07 05:08:09;;;;;;;7.70;5.57;;;;;;;12.19;60.96;93639.41;5015760;28;20439;-80
2022/04/07 05:10:39;;;;;;;7.20;5.57;;;;;;;12.23;60.96;93639.88;5034854;28;20430;-80
2022/04/07 05:13:07;;;;;;;6.53;5.73;;;;;;;12.20;59.96;93617.38;5034513;28;20553;-81
2022/04/07 05:32:23;;;;;;;10.03;6.40;;;;;;;11.79;60.28;93614.88;5032910;28;20832;-81
2022/04/07 05:34:50;;;;;;;6.17;5.57;;;;;;;11.83;59.94;93627.69;5033879;28;20451;-81
2022/04/07 05:37:17;;;;;;;7.93;5.87;;;;;;;11.90;61.28;93631.28;5033817;28;20501;-82
2022/04/07 05:39:44;;;;;;;9.07;7.37;;;;;;;11.96;60.26;93641.13;5034022;28;20434;-81
2022/04/07 05:42:11;;;;;;;6.63;5.83;;;;;;;12.03;61.64;93632.38;5033473;28;20435;-81
2022/04/07 05:48:27;;;;;;;8.67;6.47;;;;;;;12.17;60.47;93607.19;5014558;28;20489;-81
2022/04/07 05:50:54;;;;;;;24.40;14.70;;;;;;;12.16;61.01;93602.94;5033680;28;20426;-81
2022/04/07 05:53:21;;;;;;;8.80;6.30;;;;;;;12.17;62.64;93596.69;5034081;28;20445;-81
2022/04/07 05:55:47;;;;;;;6.93;6.20;;;;;;;12.30;64.42;93610.09;5033478;28;20439;-81
2022/04/07 05:58:15;;;;;;;13.03;6.80;;;;;;;12.43;63.10;93599.00;5033361;28;20438;-81
2022/04/07 06:07:32;;;;;;;21.50;7.50;;;;;;;12.32;62.40;93583.59;5034475;28;20398;-81
2022/04/07 06:09:59;;;;;;;16.70;9.00;;;;;;;12.44;62.45;93571.72;5033357;28;20454;-80
2022/04/07 06:12:26;;;;;;;7.93;7.23;;;;;;;12.40;61.36;93562.50;5032557;28;20447;-80
2022/04/07 06:14:53;;;;;;;17.30;8.70;;;;;;;12.50;61.74;93567.56;5034059;28;20446;-81
2022/04/07 06:17:20;;;;;;;8.87;7.13;;;;;;;12.59;61.56;93575.22;5033840;28;20482;-83
2022/04/07 06:19:47;;;;;;;19.57;8.30;;;;;;;12.69;61.56;93575.81;5018360;28;20450;-81
2022/04/07 06:22:14;;;;;;;14.70;8.33;;;;;;;12.79;61.31;93564.25;5041055;28;20443;-82
2022/04/07 06:24:42;;;;;;;10.93;8.20;;;;;;;12.80;60.69;93566.69;5021397;28;20435;-82
2022/04/07 06:27:09;;;;;;;12.60;8.53;;;;;;;12.82;60.10;93559.44;5038359;28;20457;-82
2022/04/07 06:29:36;;;;;;;7.10;6.40;;;;;;;12.32;59.78;93560.75;5038551;28;20917;-82
2022/04/07 06:32:03;;;;;;;8.53;6.83;;;;;;;12.21;60.54;93571.69;5039642;28;20799;-82
2022/04/07 06:34:30;;;;;;;12.47;6.67;;;;;;;12.10;60.76;93569.41;5051390;28;20529;-80
2022/04/07 06:36:57;;;;;;;16.23;7.20;;;;;;;11.87;62.35;93558.84;5059491;28;20454;-81
2022/04/07 06:39:24;;;;;;;7.23;6.33;;;;;;;12.05;60.88;93561.22;5025719;28;20511;-80
2022/04/07 06:41:52;;;;;;;8.60;6.80;;;;;;;12.11;61.43;93555.28;5060238;28;20449;-81
2022/04/07 06:44:19;;;;;;;9.57;6.53;;;;;;;12.08;59.95;93550.38;5059412;28;20509;-81
2022/04/07 06:46:46;;;;;;;11.53;7.07;;;;;;;11.88;60.91;93549.16;5059563;28;20469;-80
2022/04/07 06:49:13;;;;;;;16.23;5.43;;;;;;;12.10;59.92;93551.81;5059208;28;20470;-82
2022/04/07 06:51:40;;;;;;;14.43;6.20;;;;;;;12.16;59.32;93550.34;5032102;28;20442;-84
2022/04/07 06:54:07;;;;;;;7.97;6.37;;;;;;;12.31;59.41;93553.84;5037197;28;20430;-81
2022/04/07 06:56:34;;;;;;;9.50;6.50;;;;;;;12.51;60.01;93559.50;5036961;28;20478;-81
2022/04/07 06:59:02;;;;;;;10.73;6.80;;;;;;;12.45;57.93;93556.75;5037010;28;20434;-83
2022/04/07 07:01:29;;;;;;;8.53;6.77;;;;;;;12.50;59.11;93555.22;5001363;28;20446;-83
2022/04/07 07:03:56;;;;;;;11.80;6.23;;;;;;;12.63;58.97;93555.47;5035501;28;20443;-82
2022/04/07 07:06:23;;;;;;;7.93;7.07;;;;;;;12.71;58.36;93550.13;5035336;28;20459;-82
2022/04/07 07:08:50;;;;;;;12.90;7.50;;;;;;;12.85;58.92;93550.38;5035173;28;20462;-80
2022/04/07 07:11:17;;;;;;;7.60;5.83;;;;;;;12.87;57.48;93540.47;5016682;28;20456;-82
2022/04/07 07:13:43;;;;;;;9.03;6.83;;;;;;;12.98;57.35;93543.50;5034875;28;20454;-80
2022/04/07 07:16:12;;;;;;;11.30;7.27;;;;;;;13.03;58.33;93530.66;5034987;28;20452;-82
2022/04/07 07:18:41;;;;;;;9.67;6.40;;;;;;;12.86;56.57;93530.94;5034927;28;20455;-82
2022/04/07 07:21:07;;;;;;;14.90;6.00;;;;;;;12.84;56.46;93532.94;5035225;28;20794;-82
2022/04/07 07:23:34;;;;;;;8.87;6.00;;;;;;;12.89;56.43;93534.03;5035178;28;20462;-83
2022/04/07 07:26:01;;;;;;;9.50;6.07;;;;;;;13.05;56.57;93527.00;5034941;28;20443;-83
2022/04/07 07:28:28;;;;;;;13.33;6.60;;;;;;;13.10;55.82;93519.41;5035028;28;20435;-81
2022/04/07 07:30:55;;;;;;;12.87;7.90;;;;;;;13.08;56.47;93521.38;5034611;28;20933;-81
2022/04/07 07:33:23;;;;;;;14.00;8.10;;;;;;;13.10;57.16;93514.94;5001694;28;20470;-81
2022/04/07 07:35:50;;;;;;;8.17;6.30;;;;;;;13.10;56.47;93520.22;5035832;28;20427;-81
2022/04/07 07:38:17;;;;;;;14.97;7.97;;;;;;;12.98;56.91;93511.91;5035723;28;20486;-81
2022/04/07 07:40:44;;;;;;;8.30;7.43;;;;;;;13.03;56.35;93514.03;5035722;28;20446;-81
2022/04/07 07:43:11;;;;;;;12.70;9.00;;;;;;;13.15;56.65;93506.50;5036116;28;20481;-82
2022/04/07 07:45:38;;;;;;;12.60;6.63;;;;;;;13.28;55.38;93512.81;5001442;28;20439;-83
2022/04/07 07:48:05;;;;;;;13.00;6.50;;;;;;;13.43;56.22;93497.00;5036122;28;20443;-81
2022/04/07 07:50:33;;;;;;;17.00;7.00;;;;;;;13.53;55.92;93502.81;5017403;28;20486;-81
2022/04/07 07:53:02;;;;;;;7.37;6.67;;;;;;;13.57;56.14;93477.75;5035625;28;20924;-82
2022/04/07 07:55:28;;;;;;;7.50;6.37;;;;;;;13.47;55.75;93495.66;5035559;28;20431;-83
2022/04/07 07:57:55;;;;;;;9.07;5.87;;;;;;;13.73;54.94;93495.19;5035472;28;20486;-82
2022/04/07 08:00:23;;;;;;;8.97;5.93;;;;;;;13.85;54.18;93480.53;5001019;28;20458;-83
2022/04/07 08:02:50;;;;;;;7.37;6.40;;;;;;;14.17;54.14;93481.94;5035709;28;20442;-83
2022/04/07 08:05:17;;;;;;;14.33;6.40;;;;;;;14.53;54.00;93492.47;5035326;28;20446;-81
2022/04/07 08:07:46;;;;;;;6.27;5.63;;;;;;;14.86;53.04;93476.13;5035593;28;20526;-80
2022/04/07 08:10:12;;;;;;;10.77;7.03;;;;;;;14.94;51.12;93467.22;5035722;28;21180;-81
2022/04/07 08:12:40;;;;;;;10.70;6.50;;;;;;;14.85;50.14;93459.47;5035137;28;20506;-80
2022/04/07 08:15:09;;;;;;;12.90;6.40;;;;;;;14.41;50.83;93469.38;5000909;28;20447;-80
2022/04/07 08:17:36;;;;;;;10.87;6.47;;;;;;;14.59;52.10;93461.88;5035171;28;20506;-80
2022/04/07 08:20:21;;;;;;;10.60;6.30;;;;;;;14.94;51.24;93438.19;5035033;28;20435;-80
2022/04/07 08:22:50;;;;;;;10.30;6.87;;;;;;;15.00;51.20;93443.50;5034303;28;20450;-81
2022/04/07 08:25:17;;;;;;;8.50;6.47;;;;;;;15.15;50.78;93444.25;5033639;28;20449;-81
2022/04/07 08:27:45;;;;;;;10.13;5.90;;;;;;;15.22;50.34;93425.78;5034942;28;20443;-81
2022/04/07 08:30:13;;;;;;;7.90;7.00;;;;;;;15.54;50.08;93426.16;5034978;28;20796;-81
2022/04/07 08:32:39;;;;;;;11.83;6.13;;;;;;;15.63;49.14;93419.75;5034832;28;20435;-80
2022/04/07 08:35:09;;;;;;;14.13;5.80;;;;;;;15.17;49.43;93407.88;5034688;28;20439;-81
2022/04/07 08:37:37;;;;;;;9.10;5.90;;;;;;;15.27;50.14;93404.88;5035040;28;20486;-81
2022/04/07 08:40:07;;;;;;;11.47;6.23;;;;;;;15.76;49.91;93395.97;5035180;28;20435;-81
2022/04/07 08:42:35;;;;;;;12.33;6.20;;;;;;;16.03;48.79;93395.03;5033483;28;20435;-82
2022/04/07 08:45:02;;;;;;;6.90;5.10;;;;;;;15.75;49.48;93403.09;5033639;28;20446;-82
2022/04/07 08:47:29;;;;;;;10.40;6.77;;;;;;;15.95;48.42;93412.94;5035429;28;20537;-81
2022/04/07 08:49:57;;;;;;;9.17;6.20;;;;;;;16.13;47.63;93401.78;5037815;28;20517;-81
2022/04/07 08:52:24;;;;;;;7.10;6.40;;;;;;;16.33;47.65;93397.34;5034948;28;20821;-81
2022/04/07 08:54:51;;;;;;;10.63;6.70;;;;;;;16.54;47.31;93396.34;5034772;28;20441;-81
2022/04/07 08:57:20;;;;;;;12.50;5.93;;;;;;;16.61;47.98;93386.56;5035272;28;20482;-81
2022/04/07 08:59:47;;;;;;;13.53;6.80;;;;;;;16.68;46.83;93380.28;5034547;28;20435;-81
2022/04/07 09:02:13;;;;;;;12.63;6.43;;;;;;;16.70;45.71;93383.53;5034095;28;20817;-82
2022/04/07 09:04:42;;;;;;;14.13;5.73;;;;;;;16.87;46.50;93381.31;5032931;28;20442;-81
2022/04/07 09:07:12;;;;;;;9.77;6.10;;;;;;;16.87;46.82;93391.09;5033862;28;20457;-82
2022/04/07 09:09:39;;;;;;;8.27;6.30;;;;;;;16.76;46.73;93383.75;5033541;28;20456;-82
2022/04/07 09:12:07;;;;;;;12.70;5.67;;;;;;;16.71;46.60;93390.47;5033221;28;20451;-82
2022/04/07 09:14:37;;;;;;;9.63;6.57;;;;;;;16.59;47.08;93386.78;5014611;28;20442;-82
2022/04/07 09:17:05;;;;;;;6.60;5.13;;;;;;;16.63;47.18;93395.13;5032892;28;20856;-82
2022/04/07 09:19:34;;;;;;;11.03;6.83;;;;;;;16.58;48.20;93402.88;5033816;28;20447;-82
2022/04/07 09:22:09;;;;;;;15.97;6.20;;;;;;;16.44;50.01;93407.31;5034345;28;20453;-82
2022/04/07 09:24:37;;;;;;;12.73;7.53;;;;;;;16.24;50.99;93390.63;5034014;28;21040;-82
2022/04/07 09:27:06;;;;;;;8.93;6.20;;;;;;;16.07;49.90;93385.69;5034148;28;20426;-83
2022/04/07 09:29:42;;;;;;;13.17;6.80;;;;;;;15.97;50.83;93395.03;5033813;28;20489;-81
2022/04/07 09:32:20;;;;;;;19.17;7.23;;;;;;;15.76;51.23;93399.44;5034865;28;20814;-80
2022/04/07 09:34:53;;;;;;;12.70;7.20;;;;;;;15.55;51.13;93406.63;5034600;28;20442;-81
2022/04/07 09:37:21;;;;;;;12.77;6.07;;;;;;;15.22;51.96;93407.28;5033452;28;20485;-81
2022/04/07 09:39:50;;;;;;;18.00;7.63;;;;;;;15.08;51.36;93414.31;5015693;28;20443;-81
2022/04/07 09:42:25;;;;;;;12.93;8.07;;;;;;;14.86;52.61;93418.84;5032296;28;20485;-81
2022/04/07 09:44:57;;;;;;;16.20;7.90;;;;;;;14.66;52.90;93412.56;5015552;28;20853;-82
2022/04/07 09:47:24;;;;;;;9.90;7.63;;;;;;;14.45;52.79;93425.78;5033937;28;20526;-81
2022/04/07 09:49:51;;;;;;;14.43;7.40;;;;;;;14.27;52.93;93432.31;4999228;28;20474;-81
2022/04/07 09:52:22;;;;;;;14.93;9.47;;;;;;;14.11;53.89;93429.91;5033585;28;20441;-81
2022/04/07 09:54:52;;;;;;;14.67;7.90;;;;;;;13.73;53.92;93437.19;5033726;28;20488;-81
2022/04/07 09:57:20;;;;;;;13.90;6.87;;;;;;;13.58;54.54;93452.19;5033204;28;20467;-81
2022/04/07 10:20:03;;;;;;;17.43;7.30;;;;;;;12.74;64.61;93464.75;5033303;28;20452;-81
2022/04/07 10:23:01;;;;;;;9.53;7.53;;;;;;;12.67;67.34;93466.44;5033011;28;20805;-81
2022/04/07 10:25:30;;;;;;;16.97;8.80;;;;;;;12.70;69.58;93471.34;4992020;28;20447;-81
2022/04/07 10:28:03;;;;;;;14.23;9.23;;;;;;;12.73;73.30;93470.19;4991941;28;20452;-81
2022/04/07 10:30:30;;;;;;;19.77;8.07;;;;;;;12.72;76.25;93466.72;4991518;28;20959;-80
2022/04/07 10:32:58;;;;;;;15.60;8.00;;;;;;;12.50;77.36;93457.06;4991731;28;20445;-80
2022/04/07 10:35:37;;;;;;;13.57;7.90;;;;;;;12.34;79.26;93450.91;4991649;28;20437;-80
2022/04/07 10:38:39;;;;;;;15.63;8.10;;;;;;;12.01;78.74;93450.34;4991555;28;20476;-81
2022/04/07 10:41:06;;;;;;;22.07;7.73;;;;;;;11.96;80.32;93460.56;4991911;28;20447;-79
2022/04/07 10:43:38;;;;;;;17.33;10.00;;;;;;;11.77;83.06;93461.78;4992034;28;20865;-80
2022/04/07 10:46:14;;;;;;;14.27;8.97;;;;;;;11.92;84.00;93461.09;4991483;28;20507;-80
2022/04/07 10:48:46;;;;;;;20.93;9.53;;;;;;;12.05;83.71;93459.50;4991450;28;20467;-81
2022/04/07 10:51:15;;;;;;;19.70;7.47;;;;;;;12.24;83.95;93462.69;4991517;28;20444;-83
2022/04/07 10:54:00;;;;;;;16.90;8.70;;;;;;;12.41;83.19;93466.81;4991643;28;20472;-83
2022/04/07 10:56:32;;;;;;;12.73;7.43;;;;;;;12.58;82.67;93464.88;4991461;28;20487;-83
2022/04/07 10:59:12;;;;;;;19.80;9.27;;;;;;;12.78;82.35;93457.31;4990686;28;20861;-83
2022/04/07 11:01:58;;;;;;;12.23;8.50;;;;;;;12.91;80.22;93455.69;4997801;28;20449;-83
2022/04/07 11:05:01;;;;;;;15.93;9.63;;;;;;;12.99;79.13;93447.72;5032467;28;20454;-83
2022/04/07 11:07:37;;;;;;;15.27;9.90;;;;;;;13.11;77.76;93442.84;5035910;28;20457;-83
2022/04/07 11:10:11;;;;;;;17.13;10.37;;;;;;;13.26;79.22;93448.13;5038031;28;20458;-83
2022/04/07 11:12:43;;;;;;;15.93;10.87;;;;;;;13.37;80.45;93446.88;5035391;28;20442;-83
2022/04/07 11:15:30;;;;;;;18.40;10.43;;;;;;;13.42;78.32;93449.78;5035460;28;20458;-83
2022/04/07 11:18:02;;;;;;;15.83;9.33;;;;;;;13.55;79.73;93445.47;5035402;28;20497;-83
2022/04/07 11:20:29;;;;;;;20.00;11.40;;;;;;;13.64;79.13;93443.59;5035709;28;20486;-84
2022/04/07 11:23:01;;;;;;;13.93;10.87;;;;;;;13.58;75.33;93450.38;5035354;28;20441;-84
2022/04/07 11:25:30;;;;;;;15.40;10.43;;;;;;;13.60;76.37;93447.59;5035081;28;20478;-83
2022/04/07 11:28:11;;;;;;;18.27;9.63;;;;;;;13.66;76.79;93460.03;5035307;28;20459;-83
2022/04/07 11:30:42;;;;;;;26.30;11.83;;;;;;;13.76;77.04;93454.47;5035390;28;20443;-82
2022/04/07 11:33:31;;;;;;;18.47;9.67;;;;;;;13.78;75.79;93447.19;5001538;28;20443;-81
2022/04/07 11:36:39;;;;;;;16.83;11.17;;;;;;;13.80;75.43;93453.09;5036752;28;20442;-82
2022/04/07 11:39:11;;;;;;;18.07;11.00;;;;;;;13.95;75.94;93459.97;4975445;28;20484;-82
2022/04/07 11:41:42;;;;;;;28.77;11.00;;;;;;;14.09;75.83;93460.94;4975180;28;20427;-84
2022/04/07 11:44:11;;;;;;;15.53;9.10;;;;;;;14.17;74.34;93460.00;4975103;28;20453;-84
2022/04/07 11:46:38;;;;;;;12.93;9.50;;;;;;;14.27;74.52;93456.06;4974981;28;20430;-83
2022/04/07 11:49:06;;;;;;;14.60;10.37;;;;;;;14.34;74.69;93450.03;4974954;28;20469;-84
2022/04/07 11:51:39;;;;;;;17.80;9.80;;;;;;;14.36;73.36;93459.38;4975078;28;20872;-83
2022/04/07 11:54:08;;;;;;;16.83;8.93;;;;;;;14.33;73.48;93449.19;4974961;28;20436;-84
2022/04/07 11:56:40;;;;;;;13.00;9.60;;;;;;;14.32;73.68;93447.56;4974844;28;20472;-84
2022/04/07 11:59:09;;;;;;;20.73;9.80;;;;;;;14.40;72.23;93451.91;4974239;28;20491;-83
2022/04/07 12:01:37;;;;;;;13.33;10.73;;;;;;;14.42;72.66;93444.63;4974963;28;20457;-84
2022/04/07 12:04:05;;;;;;;18.63;10.43;;;;;;;14.23;72.81;93431.06;4974826;28;20829;-83
2022/04/07 12:06:34;;;;;;;15.63;11.80;;;;;;;14.25;72.78;93415.84;4974763;28;20580;-84
2022/04/07 12:09:02;;;;;;;19.90;10.40;;;;;;;14.23;73.05;93422.31;4974566;28;20937;-84
2022/04/07 12:11:33;;;;;;;20.00;9.93;;;;;;;14.34;71.17;93421.00;4974888;28;20424;-83
2022/04/07 12:14:01;;;;;;;17.17;11.43;;;;;;;14.37;71.67;93417.97;4974552;28;20440;-81
2022/04/07 12:16:28;;;;;;;20.70;10.17;;;;;;;14.30;71.70;93406.56;5010888;28;21008;-83
2022/04/07 12:18:56;;;;;;;18.63;9.70;;;;;;;14.25;72.59;93413.22;5018208;28;20479;-81
2022/04/07 12:21:25;;;;;;;12.57;9.20;;;;;;;14.23;71.88;93409.94;5035850;28;20443;-81
2022/04/07 12:24:07;;;;;;;15.40;9.50;;;;;;;14.41;72.37;93406.03;5036695;28;20435;-81
2022/04/07 12:26:41;;;;;;;22.20;10.57;;;;;;;14.45;71.35;93402.03;5036422;28;20493;-82
2022/04/07 12:29:08;;;;;;;16.27;10.27;;;;;;;14.58;69.02;93399.53;5036157;28;20454;-80
2022/04/07 12:31:35;;;;;;;18.70;9.40;;;;;;;14.55;69.05;93400.72;5036855;28;20439;-80
2022/04/07 12:34:12;;;;;;;15.43;10.40;;;;;;;14.64;69.54;93398.75;5034900;28;20811;-80
2022/04/07 12:36:41;;;;;;;15.00;9.50;;;;;;;14.79;69.40;93393.41;5031833;28;20508;-81
2022/04/07 12:39:09;;;;;;;17.70;10.00;;;;;;;14.92;69.68;93395.31;5035168;28;20479;-81
2022/04/07 12:49:04;;;;;;;17.50;12.80;;;;;;;14.80;71.25;93379.19;5034848;28;20409;-81
2022/04/07 12:51:34;;;;;;;24.13;12.13;;;;;;;14.76;70.36;93376.13;5035202;28;20442;-80
2022/04/07 12:54:12;;;;;;;15.93;12.00;;;;;;;14.70;70.85;93368.13;5036174;28;20443;-80
2022/04/07 12:56:41;;;;;;;13.30;11.50;;;;;;;14.76;71.05;93360.28;5036248;28;20430;-81
2022/04/07 12:59:11;;;;;;;16.60;11.90;;;;;;;14.69;70.66;93371.78;5036133;28;20471;-81
2022/04/07 13:01:38;;;;;;;21.93;13.60;;;;;;;14.46;72.09;93350.91;5033923;28;20925;-82
2022/04/07 13:04:08;;;;;;;26.87;15.60;;;;;;;14.45;73.32;93360.63;5016431;28;20436;-82
2022/04/07 13:06:38;;;;;;;22.03;13.47;;;;;;;14.23;74.08;93353.72;5016596;28;20454;-79
2022/04/07 13:09:06;;;;;;;16.37;14.40;;;;;;;14.19;74.57;93344.56;5014829;28;20462;-80
2022/04/07 13:11:35;;;;;;;15.30;12.47;;;;;;;14.19;75.47;93339.28;5014525;28;20436;-81
2022/04/07 13:14:04;;;;;;;19.67;13.57;;;;;;;14.11;73.92;93345.50;5015740;28;20455;-81
2022/04/07 13:16:30;;;;;;;20.80;13.63;;;;;;;13.89;74.95;93341.25;5014595;28;20450;-80
2022/04/07 13:18:58;;;;;;;14.10;11.37;;;;;;;13.96;74.54;93336.84;5014595;28;20472;-80
2022/04/07 13:21:26;;;;;;;23.83;13.33;;;;;;;13.80;74.66;93335.25;5014621;28;20798;-80
2022/04/07 13:23:55;;;;;;;19.53;13.80;;;;;;;13.79;74.95;93338.09;5014695;28;20489;-81
2022/04/07 13:26:22;;;;;;;21.67;13.43;;;;;;;13.81;75.03;93330.81;5014601;28;20435;-82
2022/04/07 13:28:50;;;;;;;18.77;13.03;;;;;;;13.86;75.11;93336.31;5013881;28;20436;-80
2022/04/07 13:31:17;;;;;;;25.63;13.30;;;;;;;13.86;75.40;93331.03;5014456;28;20517;-82
2022/04/07 13:33:44;;;;;;;22.00;13.37;;;;;;;13.79;75.58;93327.53;5013977;28;20447;-81
2022/04/07 13:36:11;;;;;;;18.10;12.13;;;;;;;13.96;75.14;93331.56;5025586;28;20450;-81